Dies, Texas
Current Conditions -  °F | °C
As of 4:35 PM on Tuesday 21 Oct 2014 (Local Time) from KJAS Reporting Station
Clear Clear  
Wind Chill: 80°   Ceiling: Unl
Heat Index: 81°   Visibility: 10mi
Dew Point: 61°   Wind: 8mph
Humidity: 53%   Direction: 30°NNE
Pressure: 30.02"   Gusts: NA
Location:  30.7643°N, 94.4448°W
Report Text: KJAS 212135Z AUTO 03007KT 10SM CLR 26/16 A3002 RMK AO2 T02640162
Loading
Personal Weather Stations






























Interactive Weather Map New forecast layout! Learn more

10-Day Weather Forecast

Advertisements
Track Severe Weather on mobile